createdAt,value
2022-11-13T00:00:46.437Z,101249.97
2022-11-13T00:03:35.347Z,101259.22
2022-11-13T00:06:24.878Z,101275.44
2022-11-13T00:09:14.798Z,101278.75
2022-11-13T00:12:03.767Z,101266.13
2022-11-13T00:14:52.762Z,101268.66
2022-11-13T00:17:41.654Z,101267.66
2022-11-13T00:20:30.541Z,101273.56
2022-11-13T00:23:19.287Z,101286.44
2022-11-13T00:26:15.373Z,101274.63
2022-11-13T00:29:05.486Z,101278.50
2022-11-13T00:31:54.611Z,101278.19
2022-11-13T00:34:48.103Z,101282.91
2022-11-13T00:37:37.717Z,101284.34
2022-11-13T00:40:26.857Z,101282.03
2022-11-13T00:43:15.475Z,101281.00
2022-11-13T00:46:04.735Z,101284.13
2022-11-13T00:48:53.279Z,101266.00
2022-11-13T00:51:42.362Z,101283.06
2022-11-13T00:54:31.580Z,101280.75
2022-11-13T00:57:20.338Z,101293.22
2022-11-13T01:00:09.955Z,101301.16
2022-11-13T01:03:00.690Z,101308.28
2022-11-13T01:05:49.863Z,101304.41
2022-11-13T01:08:38.537Z,101303.81
2022-11-13T01:11:30.727Z,101293.66
2022-11-13T01:14:19.159Z,101292.22
2022-11-13T01:17:08.335Z,101290.13
2022-11-13T01:19:56.996Z,101294.06
2022-11-13T01:22:46.176Z,101288.28
2022-11-13T01:25:35.382Z,101286.66
2022-11-13T01:28:24.526Z,101308.47
2022-11-13T01:31:16.784Z,101299.84
2022-11-13T01:34:05.817Z,101298.56
2022-11-13T01:36:54.590Z,101291.69
2022-11-13T01:39:43.481Z,101297.09
2022-11-13T01:42:35.218Z,101295.59
2022-11-13T01:46:01.215Z,101287.97
2022-11-13T01:49:12.998Z,101292.88
2022-11-13T01:52:41.479Z,101291.16
2022-11-13T01:55:30.549Z,101291.31
2022-11-13T01:58:19.562Z,101289.50
2022-11-13T02:01:08.446Z,101286.19
2022-11-13T02:03:57.661Z,101282.97
2022-11-13T02:06:54.794Z,101276.34
2022-11-13T02:09:46.406Z,101288.47
2022-11-13T02:12:40.555Z,101289.16
2022-11-13T02:15:32.013Z,101277.56
2022-11-13T02:18:22.233Z,101290.28
2022-11-13T02:21:40.451Z,101288.00
2022-11-13T02:24:42.038Z,101289.41
2022-11-13T02:27:40.467Z,101287.09
2022-11-13T02:30:33.011Z,101296.72
2022-11-13T02:33:34.380Z,101297.03
2022-11-13T02:36:25.163Z,101291.75
2022-11-13T02:39:16.190Z,101286.75
2022-11-13T02:42:05.323Z,101269.25
2022-11-13T02:44:54.325Z,101280.81
2022-11-13T02:47:43.452Z,101279.19
2022-11-13T02:50:32.798Z,101275.88
2022-11-13T02:53:22.673Z,101256.94
2022-11-13T02:56:11.918Z,101264.56
2022-11-13T02:59:00.611Z,101264.00
2022-11-13T03:01:49.985Z,101259.25
2022-11-13T03:05:10.471Z,101245.34
2022-11-13T03:07:48.322Z,101251.56
2022-11-13T03:10:37.308Z,101257.34
2022-11-13T03:13:26.516Z,101270.00
2022-11-13T03:16:18.531Z,101258.31
2022-11-13T03:19:07.990Z,101266.69
2022-11-13T03:21:57.907Z,101270.84
2022-11-13T03:24:47.361Z,101264.16
2022-11-13T03:27:36.610Z,101263.84
2022-11-13T03:30:25.731Z,101276.28
2022-11-13T03:33:15.009Z,101277.88
2022-11-13T03:36:04.514Z,101267.50
2022-11-13T03:38:53.896Z,101276.00
2022-11-13T03:41:42.740Z,101286.19
2022-11-13T03:44:31.762Z,101286.00
2022-11-13T03:47:20.507Z,101280.09
2022-11-13T03:50:09.686Z,101280.00
2022-11-13T03:52:58.473Z,101275.13
2022-11-13T03:55:48.810Z,101272.88
2022-11-13T03:58:40.128Z,101278.28
2022-11-13T04:01:29.462Z,101290.63
2022-11-13T04:04:18.954Z,101292.63
2022-11-13T04:07:07.924Z,101285.16
2022-11-13T04:09:57.133Z,101274.66
2022-11-13T04:12:46.253Z,101287.47
2022-11-13T04:15:35.534Z,101260.59
2022-11-13T04:18:25.531Z,101278.59
2022-11-13T04:21:15.869Z,101273.28
2022-11-13T04:24:04.800Z,101268.53
2022-11-13T04:26:54.461Z,101275.19
2022-11-13T04:29:43.925Z,101272.97
2022-11-13T04:32:34.451Z,101284.47
2022-11-13T04:35:23.390Z,101290.81
2022-11-13T04:38:12.497Z,101283.69
2022-11-13T04:41:19.424Z,101294.00
2022-11-13T04:44:08.374Z,101282.53
2022-11-13T04:46:57.177Z,101294.63
2022-11-13T04:49:46.005Z,101299.22
2022-11-13T04:52:34.877Z,101299.94
2022-11-13T04:55:24.439Z,101294.19
2022-11-13T04:58:19.784Z,101298.66
2022-11-13T05:01:08.890Z,101290.22
2022-11-13T05:03:57.919Z,101288.72
2022-11-13T05:06:48.112Z,101290.06
2022-11-13T05:09:37.333Z,101291.94
2022-11-13T05:12:26.490Z,101295.88
2022-11-13T05:15:15.776Z,101301.13
2022-11-13T05:18:05.113Z,101299.78
2022-11-13T05:20:54.660Z,101302.06
2022-11-13T05:23:44.569Z,101293.72
2022-11-13T05:26:34.052Z,101305.97
2022-11-13T05:29:22.830Z,101286.81
2022-11-13T05:32:11.873Z,101295.38
2022-11-13T05:35:01.388Z,101287.13
2022-11-13T05:37:50.180Z,101306.97
2022-11-13T05:40:39.009Z,101308.97
2022-11-13T05:43:28.763Z,101311.84
2022-11-13T05:46:19.007Z,101310.13
2022-11-13T05:49:08.348Z,101312.97
2022-11-13T05:51:57.756Z,101308.03
2022-11-13T05:54:46.732Z,101302.28
2022-11-13T05:57:35.709Z,101322.28
2022-11-13T06:00:25.295Z,101307.72
2022-11-13T06:03:14.607Z,101326.00
2022-11-13T06:06:04.385Z,101323.25
2022-11-13T06:08:54.937Z,101323.25
2022-11-13T06:11:44.264Z,101318.66
2022-11-13T06:14:33.387Z,101337.75
2022-11-13T06:17:22.284Z,101339.44
2022-11-13T06:20:11.696Z,101338.09
2022-11-13T06:23:00.887Z,101332.88
2022-11-13T06:25:50.452Z,101336.19
2022-11-13T06:28:40.146Z,101336.69
2022-11-13T06:31:30.975Z,101333.69
2022-11-13T06:34:20.046Z,101341.25
2022-11-13T06:37:09.256Z,101350.75
2022-11-13T06:39:58.171Z,101340.31
2022-11-13T06:42:47.228Z,101356.09
2022-11-13T06:45:36.291Z,101363.19
2022-11-13T06:48:26.499Z,101349.25
2022-11-13T06:51:24.107Z,101355.41
2022-11-13T06:54:12.848Z,101362.41
2022-11-13T06:57:01.850Z,101379.56
2022-11-13T06:59:51.011Z,101388.13
2022-11-13T07:02:40.394Z,101391.06
2022-11-13T07:05:29.145Z,101393.75
2022-11-13T07:08:18.394Z,101381.41
2022-11-13T07:11:09.264Z,101380.69
2022-11-13T07:13:58.278Z,101396.91
2022-11-13T07:17:07.922Z,101401.22
2022-11-13T07:19:56.145Z,101408.28
2022-11-13T07:22:45.094Z,101411.50
2022-11-13T07:25:34.760Z,101406.88
2022-11-13T07:28:24.799Z,101416.38
2022-11-13T07:31:15.077Z,101413.66
2022-11-13T07:34:04.615Z,101412.34
2022-11-13T07:36:53.588Z,101430.41
2022-11-13T07:39:43.100Z,101430.75
2022-11-13T07:42:32.808Z,101437.34
2022-11-13T07:45:21.840Z,101447.03
2022-11-13T07:48:11.521Z,101461.41
2022-11-13T07:51:04.286Z,101462.50
2022-11-13T07:53:53.468Z,101468.09
2022-11-13T07:56:42.447Z,101464.84
2022-11-13T07:59:31.710Z,101475.22
2022-11-13T08:02:26.138Z,101479.03
2022-11-13T08:05:17.180Z,101477.72
2022-11-13T08:08:06.799Z,101482.66
2022-11-13T08:10:56.548Z,101484.47
2022-11-13T08:13:45.656Z,101478.69
2022-11-13T08:16:34.641Z,101486.38
2022-11-13T08:19:23.527Z,101462.66
2022-11-13T08:22:12.674Z,101496.22
2022-11-13T08:25:02.263Z,101503.00
2022-11-13T08:27:51.256Z,101513.72
2022-11-13T08:30:40.103Z,101499.66
2022-11-13T08:33:29.057Z,101491.56
2022-11-13T08:36:18.299Z,101509.94
2022-11-13T08:39:07.632Z,101513.09
2022-11-13T08:41:57.292Z,101512.25
2022-11-13T08:44:46.531Z,101508.78
2022-11-13T08:47:35.653Z,101502.56
2022-11-13T08:50:24.883Z,101517.38
2022-11-13T08:53:14.328Z,101516.91
2022-11-13T08:56:04.375Z,101519.28
2022-11-13T08:58:53.396Z,101530.06
2022-11-13T09:01:42.309Z,101508.22
2022-11-13T09:04:31.539Z,101523.66
2022-11-13T09:07:24.600Z,101510.84
2022-11-13T09:10:15.696Z,101534.94
2022-11-13T09:13:10.180Z,101541.31
2022-11-13T09:16:01.147Z,101547.50
2022-11-13T09:18:53.547Z,101544.88
2022-11-13T09:21:42.111Z,101546.09
2022-11-13T09:24:31.176Z,101536.81
2022-11-13T09:27:20.775Z,101541.81
2022-11-13T09:30:10.845Z,101545.34
2022-11-13T09:33:02.490Z,101545.78
2022-11-13T09:35:51.251Z,101529.56
2022-11-13T09:38:40.527Z,101522.94
2022-11-13T09:41:34.254Z,101534.59
2022-11-13T09:44:46.181Z,101537.63
2022-11-13T09:47:44.616Z,101534.66
2022-11-13T09:50:34.355Z,101544.69
2022-11-13T09:53:23.619Z,101545.69
2022-11-13T09:56:44.632Z,101548.25
2022-11-13T09:59:46.796Z,101558.41
2022-11-13T10:03:03.818Z,101559.72
2022-11-13T10:06:15.300Z,101563.69
2022-11-13T10:09:19.878Z,101560.50
2022-11-13T10:12:09.890Z,101562.59
2022-11-13T10:15:03.730Z,101569.94
2022-11-13T10:18:05.382Z,101573.72
2022-11-13T10:20:59.388Z,101575.00
2022-11-13T10:23:56.034Z,101564.28
2022-11-13T10:26:44.743Z,101576.19
2022-11-13T10:29:33.529Z,101563.34
2022-11-13T10:32:32.063Z,101567.44
2022-11-13T10:35:46.973Z,101563.31
2022-11-13T10:38:42.016Z,101572.06
2022-11-13T10:41:31.277Z,101565.31
2022-11-13T10:44:30.496Z,101557.91
2022-11-13T10:47:42.373Z,101555.84
2022-11-13T10:50:33.403Z,101555.22
2022-11-13T10:53:22.822Z,101557.69
2022-11-13T10:56:35.008Z,101555.22
2022-11-13T10:59:23.802Z,101556.00
2022-11-13T11:02:26.755Z,101561.94
2022-11-13T11:05:21.268Z,101554.19
2022-11-13T11:08:16.023Z,101566.53
2022-11-13T11:12:00.709Z,101568.66
2022-11-13T11:15:01.360Z,101566.09
2022-11-13T11:17:55.452Z,101565.41
2022-11-13T11:21:00.165Z,101567.50
2022-11-13T11:23:55.808Z,101566.34
2022-11-13T11:26:48.133Z,101568.44
2022-11-13T11:30:34.652Z,101554.22
2022-11-13T11:33:49.671Z,101547.75
2022-11-13T11:36:53.799Z,101542.69
2022-11-13T11:39:51.332Z,101550.19
2022-11-13T11:43:30.563Z,101527.25
2022-11-13T11:46:24.662Z,101550.81
2022-11-13T11:49:13.944Z,101542.47
2022-11-13T11:52:27.953Z,101546.66
2022-11-13T11:55:25.415Z,101540.25
2022-11-13T11:58:40.905Z,101533.63
2022-11-13T12:01:42.838Z,101544.44
2022-11-13T12:04:52.775Z,101543.50
2022-11-13T12:07:52.777Z,101538.44
2022-11-13T12:11:06.938Z,101547.38
2022-11-13T12:14:14.579Z,101550.09
2022-11-13T12:17:17.446Z,101541.41
2022-11-13T12:20:48.019Z,101546.22
2022-11-13T12:24:14.139Z,101543.03
2022-11-13T12:27:32.798Z,101520.25
2022-11-13T12:30:31.954Z,101528.94
2022-11-13T12:33:43.626Z,101525.97
2022-11-13T12:36:34.601Z,101520.22
2022-11-13T12:39:38.886Z,101519.06
2022-11-13T12:42:48.620Z,101512.69
2022-11-13T12:45:40.457Z,101506.97
2022-11-13T12:48:52.644Z,101505.78
2022-11-13T12:51:42.946Z,101509.78
2022-11-13T12:54:37.696Z,101519.03
2022-11-13T12:57:30.715Z,101511.06
2022-11-13T13:00:29.951Z,101505.53
2022-11-13T13:03:43.066Z,101499.69
2022-11-13T13:06:58.893Z,101502.94
2022-11-13T13:10:02.843Z,101500.69
2022-11-13T13:13:01.938Z,101505.41
2022-11-13T13:15:59.591Z,101496.16
2022-11-13T13:18:48.661Z,101493.47
2022-11-13T13:21:45.614Z,101496.97
2022-11-13T13:24:39.087Z,101480.63
2022-11-13T13:27:30.506Z,101492.84
2022-11-13T13:30:24.120Z,101479.69
2022-11-13T13:33:19.254Z,101477.63
2022-11-13T13:36:35.705Z,101482.31
2022-11-13T13:39:31.709Z,101490.75
2022-11-13T13:42:35.746Z,101486.06
2022-11-13T13:45:43.130Z,101483.03
2022-11-13T13:48:33.126Z,101482.75
2022-11-13T13:51:33.207Z,101467.72
2022-11-13T13:54:29.950Z,101478.53
2022-11-13T13:57:19.102Z,101486.28
2022-11-13T14:00:14.471Z,101483.78
2022-11-13T14:03:05.125Z,101474.28
2022-11-13T14:05:57.024Z,101488.25
2022-11-13T14:08:51.109Z,101482.03
2022-11-13T14:11:40.226Z,101482.84
2022-11-13T14:14:29.987Z,101483.44
2022-11-13T14:17:26.361Z,101489.19
2022-11-13T14:20:15.714Z,101480.03
2022-11-13T14:23:04.768Z,101482.50
2022-11-13T14:25:54.406Z,101482.22
2022-11-13T14:29:13.517Z,101477.75
2022-11-13T14:32:08.041Z,101480.22
2022-11-13T14:34:59.910Z,101479.97
2022-11-13T14:37:49.958Z,101482.59
2022-11-13T14:40:39.754Z,101473.13
2022-11-13T14:43:33.757Z,101475.63
2022-11-13T14:46:37.109Z,101480.47
2022-11-13T14:49:35.698Z,101484.94
2022-11-13T14:52:27.272Z,101473.69
2022-11-13T14:55:27.657Z,101473.91
2022-11-13T14:58:16.904Z,101460.91
2022-11-13T15:01:25.661Z,101467.00
2022-11-13T15:04:15.096Z,101451.13
2022-11-13T15:07:06.207Z,101460.56
2022-11-13T15:09:55.822Z,101459.03
2022-11-13T15:12:45.116Z,101448.94
2022-11-13T15:15:34.483Z,101457.69
2022-11-13T15:18:23.426Z,101463.84
2022-11-13T15:21:12.208Z,101465.63
2022-11-13T15:24:02.656Z,101460.50
2022-11-13T15:26:51.362Z,101460.44
2022-11-13T15:29:40.188Z,101454.00
2022-11-13T15:32:30.489Z,101452.00
2022-11-13T15:35:21.536Z,101454.97
2022-11-13T15:38:12.322Z,101447.13
2022-11-13T15:41:01.735Z,101451.41
2022-11-13T15:43:54.712Z,101455.75
2022-11-13T15:46:43.651Z,101449.44
2022-11-13T15:49:33.057Z,101440.69
2022-11-13T15:52:22.635Z,101446.59
2022-11-13T15:55:32.761Z,101446.91
2022-11-13T15:58:21.540Z,101442.97
2022-11-13T16:01:13.116Z,101439.53
2022-11-13T16:04:03.927Z,101439.00
2022-11-13T16:06:52.789Z,101439.28
2022-11-13T16:09:41.945Z,101426.69
2022-11-13T16:12:31.160Z,101435.91
2022-11-13T16:15:20.422Z,101430.75
2022-11-13T16:18:17.116Z,101432.19
2022-11-13T16:21:06.032Z,101424.78
2022-11-13T16:23:55.481Z,101442.28
2022-11-13T16:26:52.514Z,101451.25
2022-11-13T16:29:41.663Z,101460.31
2022-11-13T16:32:30.639Z,101451.94
2022-11-13T16:35:21.250Z,101458.63
2022-11-13T16:38:14.957Z,101464.78
2022-11-13T16:41:04.536Z,101467.13
2022-11-13T16:43:53.690Z,101452.94
2022-11-13T16:46:43.614Z,101470.50
2022-11-13T16:49:32.602Z,101476.44
2022-11-13T16:52:21.434Z,101475.41
2022-11-13T16:55:11.112Z,101468.84
2022-11-13T16:58:00.398Z,101473.59
2022-11-13T17:00:49.392Z,101467.16
2022-11-13T17:03:38.083Z,101468.00
2022-11-13T17:06:35.641Z,101473.03
2022-11-13T17:09:24.266Z,101475.50
2022-11-13T17:12:13.959Z,101458.81
2022-11-13T17:15:03.202Z,101477.00
2022-11-13T17:17:51.952Z,101477.19
2022-11-13T17:20:40.919Z,101478.72
2022-11-13T17:23:29.781Z,101480.78
2022-11-13T17:26:18.923Z,101485.94
2022-11-13T17:29:08.367Z,101494.56
2022-11-13T17:31:57.552Z,101494.00
2022-11-13T17:34:46.871Z,101500.81
2022-11-13T17:37:36.402Z,101503.97
2022-11-13T17:40:25.327Z,101498.50
2022-11-13T17:43:15.175Z,101490.31
2022-11-13T17:46:03.719Z,101513.50
2022-11-13T17:48:53.040Z,101514.97
2022-11-13T17:51:42.148Z,101501.13
2022-11-13T17:54:31.355Z,101506.56
2022-11-13T17:57:24.172Z,101513.91
2022-11-13T18:00:15.793Z,101504.84
2022-11-13T18:03:04.752Z,101505.94
2022-11-13T18:05:53.318Z,101499.53
2022-11-13T18:08:43.544Z,101502.47
2022-11-13T18:11:32.698Z,101507.75
2022-11-13T18:14:21.621Z,101508.13
2022-11-13T18:17:10.521Z,101502.09
2022-11-13T18:20:01.983Z,101507.19
2022-11-13T18:22:51.894Z,101512.38
2022-11-13T18:25:40.941Z,101503.41
2022-11-13T18:28:29.639Z,101502.38
2022-11-13T18:31:20.519Z,101511.38
2022-11-13T18:34:11.418Z,101491.81
2022-11-13T18:37:01.045Z,101509.50
2022-11-13T18:39:49.746Z,101508.41
2022-11-13T18:42:38.699Z,101508.56
2022-11-13T18:45:27.723Z,101507.44
2022-11-13T18:48:16.333Z,101507.59
2022-11-13T18:51:17.318Z,101518.56
2022-11-13T18:54:09.876Z,101513.38
2022-11-13T18:56:58.935Z,101533.09
2022-11-13T18:59:47.704Z,101523.34
2022-11-13T19:02:36.631Z,101537.78
2022-11-13T19:05:25.866Z,101508.53
2022-11-13T19:08:15.787Z,101530.41
2022-11-13T19:11:15.475Z,101527.00
2022-11-13T19:14:04.603Z,101519.41
2022-11-13T19:16:53.478Z,101539.38
2022-11-13T19:19:43.783Z,101535.34
2022-11-13T19:22:34.779Z,101523.81
2022-11-13T19:25:23.536Z,101534.00
2022-11-13T19:28:11.973Z,101523.09
2022-11-13T19:31:00.883Z,101537.03
2022-11-13T19:33:55.586Z,101544.69
2022-11-13T19:36:46.472Z,101541.69
2022-11-13T19:39:35.358Z,101542.56
2022-11-13T19:42:24.434Z,101544.47
2022-11-13T19:45:14.051Z,101545.22
2022-11-13T19:48:03.343Z,101544.50
2022-11-13T19:50:52.436Z,101535.19
2022-11-13T19:53:47.537Z,101540.63
2022-11-13T19:56:36.575Z,101513.66
2022-11-13T19:59:25.794Z,101523.41
2022-11-13T20:02:15.756Z,101534.75
2022-11-13T20:05:04.746Z,101526.28
2022-11-13T20:07:54.114Z,101521.28
2022-11-13T20:10:43.381Z,101529.94
2022-11-13T20:13:34.444Z,101542.91
2022-11-13T20:16:24.903Z,101522.47
2022-11-13T20:19:13.559Z,101532.75
2022-11-13T20:22:03.013Z,101535.53
2022-11-13T20:24:52.025Z,101538.44
2022-11-13T20:27:45.979Z,101547.94
2022-11-13T20:30:36.445Z,101530.69
2022-11-13T20:33:25.133Z,101536.00
2022-11-13T20:36:14.290Z,101545.31
2022-11-13T20:39:08.097Z,101529.81
2022-11-13T20:41:58.024Z,101531.81
2022-11-13T20:44:47.333Z,101527.31
2022-11-13T20:47:37.126Z,101530.31
2022-11-13T20:50:26.636Z,101518.06
2022-11-13T20:53:15.913Z,101522.97
2022-11-13T20:56:05.669Z,101514.88
2022-11-13T20:58:55.041Z,101519.50
2022-11-13T21:01:44.241Z,101518.19
2022-11-13T21:04:33.024Z,101515.34
2022-11-13T21:07:22.132Z,101516.88
2022-11-13T21:10:11.294Z,101519.81
2022-11-13T21:12:59.917Z,101504.19
2022-11-13T21:15:48.787Z,101515.22
2022-11-13T21:18:38.209Z,101511.81
2022-11-13T21:21:29.985Z,101520.53
2022-11-13T21:24:18.741Z,101521.84
2022-11-13T21:27:07.936Z,101492.38
2022-11-13T21:29:56.639Z,101500.72
2022-11-13T21:32:45.388Z,101511.34
2022-11-13T21:35:33.974Z,101516.78
2022-11-13T21:38:22.555Z,101510.59
2022-11-13T21:41:28.412Z,101496.72
2022-11-13T21:44:17.746Z,101505.91
2022-11-13T21:47:06.649Z,101490.03
2022-11-13T21:49:56.370Z,101485.31
2022-11-13T21:52:45.982Z,101487.25
2022-11-13T21:55:35.516Z,101483.44
2022-11-13T21:58:40.094Z,101485.78
2022-11-13T22:01:33.717Z,101486.25
2022-11-13T22:04:25.730Z,101464.34
2022-11-13T22:07:15.705Z,101468.91
2022-11-13T22:10:08.366Z,101462.84
2022-11-13T22:12:57.596Z,101458.53
2022-11-13T22:15:46.302Z,101456.09
2022-11-13T22:18:36.123Z,101435.75
2022-11-13T22:21:26.027Z,101449.97
2022-11-13T22:24:15.736Z,101449.75
2022-11-13T22:27:04.658Z,101454.31
2022-11-13T22:29:53.621Z,101450.66
2022-11-13T22:32:42.894Z,101448.25
2022-11-13T22:35:32.424Z,101452.31
2022-11-13T22:38:21.497Z,101444.72
2022-11-13T22:41:13.272Z,101451.53
2022-11-13T22:44:04.586Z,101431.06
2022-11-13T22:46:53.170Z,101449.59
2022-11-13T22:49:42.089Z,101434.75
2022-11-13T22:52:33.010Z,101444.00
2022-11-13T22:55:21.822Z,101446.56
2022-11-13T22:58:10.568Z,101441.41
2022-11-13T23:01:11.977Z,101435.13
2022-11-13T23:04:03.543Z,101436.03
2022-11-13T23:06:52.588Z,101426.00
2022-11-13T23:09:41.396Z,101416.06
2022-11-13T23:12:31.128Z,101416.63
2022-11-13T23:15:20.290Z,101423.72
2022-11-13T23:18:10.069Z,101428.28
2022-11-13T23:20:59.464Z,101421.94
2022-11-13T23:23:48.508Z,101408.13
2022-11-13T23:26:37.606Z,101423.38
2022-11-13T23:29:26.724Z,101422.91
2022-11-13T23:32:15.867Z,101423.59
2022-11-13T23:35:04.769Z,101408.44
2022-11-13T23:37:53.736Z,101402.34
2022-11-13T23:40:43.064Z,101406.88
2022-11-13T23:44:02.033Z,101396.44
2022-11-13T23:46:41.919Z,101380.19
2022-11-13T23:49:30.928Z,101396.66
2022-11-13T23:52:19.679Z,101397.88
2022-11-13T23:55:09.690Z,101393.19
2022-11-13T23:58:01.216Z,101392.53
